CheckWX is a tool to help pilots better visualize weather data.  It is not intended as a substitute for an official pre-flight weather briefing.

12:51:53 UTC

CYNM METAR
Matagami Airport
Matagami, Quebec, Canada
Current

52 mins ago

CYNM 181200Z AUTO 34005KT 9SM OVC024 M21/M23 A3011 RMK SLP231
Observed
Feb-18 @ 12:00 UTC
Wind
  • 340° at 5 KTS
Visibility
9 SM
Flight Rules
MVFR
Cloud Levels
  • Overcast at 2,400' AGL
Temperature
-21°C / -6°F
Dewpoint
-23°C / -9°F
Humidity
84%
Altimeter
30.11" Hg
Pressure
1023.1 hPa
Previous

2 hours ago

CYNM 181100Z AUTO 35004KT 9SM OVC024 M21/M23 A3011 RMK SLP228
Observed
Feb-18 @ 11:00 UTC
Wind
  • 350° at 4 KTS
Visibility
9 SM
Flight Rules
MVFR
Cloud Levels
  • Overcast at 2,400' AGL
Temperature
-21°C / -6°F
Dewpoint
-23°C / -9°F
Humidity
84%
Altimeter
30.11" Hg
Pressure
1022.8 hPa
Previous

2 hours ago

CYNM 181033Z AUTO 35003KT 9SM OVC024 M21/M23 A3011 RMK SLP228
Observed
Feb-18 @ 10:33 UTC
Wind
  • 350° at 3 KTS
Visibility
9 SM
Flight Rules
MVFR
Cloud Levels
  • Overcast at 2,400' AGL
Temperature
-21°C / -6°F
Dewpoint
-23°C / -9°F
Humidity
84%
Altimeter
30.11" Hg
Pressure
1022.8 hPa